Time;durP1;ratioP1;P1;durP2;ratioP2;P2;SDS_P1;SDS_P2;PMS_P1;PMS_P2;Temp;Humidity;BMP_temperature;BMP_pressure;BME280_temperature;BME280_humidity;BME280_pressure;Samples;Min_cycle;Max_cycle;Signal;HPM_P1;HPM_P2
2024/04/20 00:00:58;;;;;;;2.90;1.80;;;8.10;99.90;;;;;;5407549;26;20272;-80
2024/04/20 00:03:27;;;;;;;2.80;2.30;;;8.10;99.90;;;;;;5422630;26;20610;-79
2024/04/20 00:05:56;;;;;;;4.68;2.60;;;8.20;99.90;;;;;;5421977;26;20275;-79
2024/04/20 00:08:24;;;;;;;5.40;2.33;;;8.20;99.90;;;;;;5424534;26;20241;-78
2024/04/20 00:10:55;;;;;;;3.05;2.75;;;8.20;99.90;;;;;;5425496;26;20272;-79
2024/04/20 00:13:24;;;;;;;2.90;2.10;;;8.20;99.90;;;;;;5421621;26;20237;-79
2024/04/20 00:15:53;;;;;;;4.43;2.20;;;8.20;99.90;;;;;;5421979;26;20284;-79
2024/04/20 00:18:21;;;;;;;1.70;1.50;;;8.10;99.90;;;;;;5426026;26;20237;-78
2024/04/20 00:20:50;;;;;;;2.40;1.90;;;8.10;99.90;;;;;;5427561;26;20279;-78
2024/04/20 00:23:18;;;;;;;3.08;1.75;;;8.10;99.90;;;;;;5416226;26;20570;-80
2024/04/20 00:25:47;;;;;;;2.80;2.30;;;8.00;99.90;;;;;;5421335;26;20354;-78
2024/04/20 00:28:18;;;;;;;2.30;2.05;;;8.00;99.90;;;;;;5429029;26;20233;-78
2024/04/20 00:30:47;;;;;;;2.38;2.15;;;7.90;99.90;;;;;;5430765;26;20273;-78
2024/04/20 00:33:15;;;;;;;4.18;2.17;;;7.90;99.90;;;;;;5433259;26;20229;-78
2024/04/20 00:35:44;;;;;;;4.07;2.35;;;7.80;99.90;;;;;;5430647;26;20237;-77
2024/04/20 00:38:12;;;;;;;2.80;2.10;;;7.80;99.90;;;;;;5429971;26;20237;-79
2024/04/20 00:40:41;;;;;;;4.15;2.40;;;7.80;99.90;;;;;;5430724;26;20276;-77
2024/04/20 00:43:20;;;;;;;2.28;1.70;;;7.70;99.90;;;;;;5422382;26;20284;-79
2024/04/20 00:45:49;;;;;;;2.90;2.10;;;7.70;99.90;;;;;;5421582;26;20267;-80
2024/04/20 00:48:18;;;;;;;3.58;2.08;;;7.60;99.90;;;;;;5420060;26;20766;-80
2024/04/20 00:50:47;;;;;;;4.10;2.33;;;7.60;99.90;;;;;;5419888;26;20824;-79
2024/04/20 00:53:17;;;;;;;2.83;2.22;;;7.50;99.90;;;;;;5420054;26;20723;-79
2024/04/20 00:55:46;;;;;;;2.05;1.85;;;7.40;99.90;;;;;;5431876;26;20592;-79
2024/04/20 00:58:14;;;;;;;4.03;2.15;;;7.40;99.90;;;;;;5427895;26;20275;-80
2024/04/20 01:00:46;;;;;;;2.08;1.80;;;7.40;99.90;;;;;;5420540;26;20237;-81
2024/04/20 01:03:15;;;;;;;2.80;1.88;;;7.30;99.90;;;;;;5421411;26;20233;-78
2024/04/20 01:05:44;;;;;;;5.75;1.90;;;7.20;99.90;;;;;;5420951;26;20576;-79
2024/04/20 01:08:13;;;;;;;1.88;1.67;;;7.20;99.90;;;;;;5428415;26;20291;-79
2024/04/20 01:10:42;;;;;;;2.25;1.73;;;7.00;99.90;;;;;;5430825;26;20237;-78
2024/04/20 01:13:11;;;;;;;2.35;1.65;;;7.10;99.90;;;;;;5417427;26;20279;-80
2024/04/20 01:15:39;;;;;;;1.95;1.50;;;7.00;99.90;;;;;;5423535;26;20233;-78
2024/04/20 01:18:10;;;;;;;3.88;1.60;;;7.00;99.90;;;;;;5427088;26;20249;-78
2024/04/20 01:20:40;;;;;;;3.40;1.30;;;6.90;99.90;;;;;;5424375;26;20233;-78
2024/04/20 01:23:09;;;;;;;1.85;1.40;;;6.80;99.90;;;;;;5422650;26;20711;-79
2024/04/20 01:25:38;;;;;;;4.38;1.20;;;6.70;99.90;;;;;;5424857;26;20229;-77
2024/04/20 01:28:11;;;;;;;1.63;1.45;;;6.70;99.90;;;;;;5437324;26;20237;-78
2024/04/20 01:30:39;;;;;;;1.80;1.08;;;6.80;99.90;;;;;;5437095;26;20258;-79
2024/04/20 01:33:08;;;;;;;2.60;1.70;;;6.70;99.90;;;;;;5437415;26;20213;-76
2024/04/20 01:35:39;;;;;;;2.63;1.70;;;6.60;99.90;;;;;;5437086;26;20256;-79
2024/04/20 01:38:08;;;;;;;1.83;1.58;;;6.60;99.90;;;;;;5437391;26;20315;-77
2024/04/20 01:40:37;;;;;;;3.45;1.23;;;6.60;99.90;;;;;;5439182;26;20267;-79
2024/04/20 01:43:09;;;;;;;3.00;1.33;;;6.50;99.90;;;;;;5434336;26;20225;-79
2024/04/20 01:45:38;;;;;;;2.30;1.23;;;6.50;99.90;;;;;;5420192;26;20229;-79
2024/04/20 01:48:07;;;;;;;4.25;1.40;;;6.50;99.90;;;;;;5419881;26;20241;-79
2024/04/20 01:50:36;;;;;;;1.30;0.90;;;6.40;99.90;;;;;;5419295;26;20280;-79
2024/04/20 01:53:04;;;;;;;1.05;0.90;;;6.40;99.90;;;;;;5419623;26;20275;-80
2024/04/20 01:55:33;;;;;;;3.92;2.10;;;6.30;99.90;;;;;;5419403;26;20241;-80
2024/04/20 01:58:02;;;;;;;1.50;1.23;;;6.30;99.90;;;;;;5418695;26;20253;-80
2024/04/20 02:00:33;;;;;;;1.95;1.35;;;6.30;99.90;;;;;;5419056;26;20264;-79
2024/04/20 02:03:01;;;;;;;0.93;0.90;;;6.20;99.90;;;;;;5405381;26;20233;-80
2024/04/20 02:05:30;;;;;;;1.60;1.10;;;6.20;99.90;;;;;;5419295;26;20736;-80
2024/04/20 02:07:59;;;;;;;8.05;2.47;;;6.20;99.90;;;;;;5418696;26;20237;-79
2024/04/20 02:10:27;;;;;;;1.42;1.20;;;6.10;99.90;;;;;;5415842;26;20287;-81
2024/04/20 02:12:56;;;;;;;1.63;1.00;;;6.10;99.90;;;;;;5419752;26;20263;-80
2024/04/20 02:15:26;;;;;;;1.83;0.80;;;6.10;99.90;;;;;;5411632;26;20316;-78
2024/04/20 02:17:57;;;;;;;1.77;1.20;;;6.00;99.90;;;;;;5416670;26;20785;-78
2024/04/20 02:20:26;;;;;;;3.00;1.10;;;6.00;99.90;;;;;;5417578;26;20279;-79
2024/04/20 02:22:55;;;;;;;3.17;1.50;;;6.00;99.90;;;;;;5419595;26;20264;-79
2024/04/20 02:25:23;;;;;;;2.22;1.40;;;6.00;99.90;;;;;;5421109;26;20276;-79
2024/04/20 02:27:54;;;;;;;3.95;1.80;;;5.90;99.90;;;;;;5423473;26;20279;-79
2024/04/20 02:30:22;;;;;;;3.75;1.50;;;5.90;99.90;;;;;;5426806;26;20224;-79
2024/04/20 02:32:51;;;;;;;2.80;1.27;;;5.90;99.90;;;;;;5426344;26;20275;-80
2024/04/20 02:35:22;;;;;;;1.95;1.45;;;5.90;99.90;;;;;;5439165;26;20221;-79
2024/04/20 02:37:50;;;;;;;3.00;1.30;;;5.80;99.90;;;;;;5439017;26;20232;-80
2024/04/20 02:40:19;;;;;;;4.55;1.50;;;5.80;99.90;;;;;;5438069;26;20260;-79
2024/04/20 02:42:48;;;;;;;2.92;1.40;;;5.80;99.90;;;;;;5439159;26;20221;-80
2024/04/20 02:45:18;;;;;;;3.50;1.30;;;5.70;99.90;;;;;;5438881;26;20213;-79
2024/04/20 02:47:47;;;;;;;2.40;1.33;;;5.70;99.90;;;;;;5438897;26;20255;-80
2024/04/20 02:50:15;;;;;;;1.90;1.00;;;5.70;99.90;;;;;;5434900;26;20231;-80
2024/04/20 02:52:47;;;;;;;3.55;2.20;;;5.70;99.90;;;;;;5437584;26;20221;-80
2024/04/20 02:55:16;;;;;;;3.03;1.63;;;5.60;99.90;;;;;;5438340;26;20357;-80
2024/04/20 02:57:46;;;;;;;1.85;1.25;;;5.60;99.90;;;;;;5439051;26;20233;-80
2024/04/20 03:00:15;;;;;;;2.72;1.20;;;5.60;99.90;;;;;;5440077;26;20790;-79
2024/04/20 03:02:44;;;;;;;2.55;1.20;;;5.50;99.90;;;;;;5439961;26;20221;-79
2024/04/20 03:05:13;;;;;;;1.92;1.00;;;5.50;99.90;;;;;;5439405;26;20218;-78
2024/04/20 03:07:42;;;;;;;3.78;1.75;;;5.50;99.90;;;;;;5438312;26;20267;-80
2024/04/20 03:10:13;;;;;;;2.35;1.33;;;5.50;99.90;;;;;;5438573;26;20233;-79
2024/04/20 03:12:42;;;;;;;1.95;1.48;;;5.50;99.90;;;;;;5438427;26;20225;-79
2024/04/20 03:15:10;;;;;;;1.60;1.13;;;5.50;99.90;;;;;;5436501;26;20276;-79
2024/04/20 03:17:39;;;;;;;4.65;1.65;;;5.50;99.90;;;;;;5434067;26;20276;-77
2024/04/20 03:20:08;;;;;;;1.55;1.40;;;5.40;99.90;;;;;;5434482;26;20221;-78
2024/04/20 03:22:37;;;;;;;3.38;1.63;;;5.40;99.90;;;;;;5418844;26;20265;-77
2024/04/20 03:25:06;;;;;;;2.85;1.10;;;5.40;99.90;;;;;;5433360;26;20227;-77
2024/04/20 03:27:38;;;;;;;3.90;1.55;;;5.40;99.90;;;;;;5431458;26;20256;-78
2024/04/20 03:30:07;;;;;;;8.30;2.10;;;5.40;99.90;;;;;;5394537;26;20226;-78
2024/04/20 03:32:36;;;;;;;1.70;1.40;;;5.30;99.90;;;;;;5394613;26;20222;-79
2024/04/20 03:35:06;;;;;;;2.03;1.63;;;5.40;99.90;;;;;;5417344;26;20314;-78
2024/04/20 03:37:35;;;;;;;3.88;1.40;;;5.30;99.90;;;;;;5416314;26;20286;-79
2024/04/20 03:40:03;;;;;;;1.98;1.20;;;5.20;99.90;;;;;;5429137;26;20234;-78
2024/04/20 03:42:32;;;;;;;2.33;1.83;;;5.20;99.90;;;;;;5430142;26;20621;-78
2024/04/20 03:45:03;;;;;;;1.77;1.40;;;5.20;99.90;;;;;;5429419;26;20229;-77
2024/04/20 03:47:32;;;;;;;1.90;1.55;;;5.30;99.90;;;;;;5430834;26;20234;-79
2024/04/20 03:50:00;;;;;;;1.58;1.20;;;5.20;99.90;;;;;;5430628;26;20233;-77
2024/04/20 03:52:29;;;;;;;1.90;1.33;;;5.30;99.90;;;;;;5429615;26;20260;-77
2024/04/20 03:54:58;;;;;;;1.60;1.25;;;5.20;99.90;;;;;;5429848;26;20283;-76
2024/04/20 03:57:28;;;;;;;2.00;1.30;;;5.30;99.90;;;;;;5428226;26;20233;-78
2024/04/20 03:59:56;;;;;;;1.98;1.58;;;5.30;99.90;;;;;;5420515;26;20275;-78
2024/04/20 04:02:28;;;;;;;3.38;1.38;;;5.30;99.90;;;;;;5421087;26;20233;-79
2024/04/20 04:04:57;;;;;;;1.65;1.20;;;5.30;99.90;;;;;;5421152;26;20221;-79
2024/04/20 04:07:25;;;;;;;1.92;1.60;;;5.30;99.90;;;;;;5420709;26;20237;-79
2024/04/20 04:09:54;;;;;;;3.40;1.83;;;5.30;99.90;;;;;;5420690;26;20288;-80
2024/04/20 04:12:22;;;;;;;3.20;1.60;;;5.30;99.90;;;;;;5421107;26;20268;-81
2024/04/20 04:14:51;;;;;;;2.22;1.25;;;5.30;99.90;;;;;;5427019;26;20237;-77
2024/04/20 04:17:19;;;;;;;2.05;1.35;;;5.30;99.90;;;;;;5430177;26;20233;-78
2024/04/20 04:19:51;;;;;;;4.00;2.35;;;5.30;99.90;;;;;;5434289;26;20256;-78
2024/04/20 04:22:19;;;;;;;1.52;1.42;;;5.30;99.90;;;;;;5437847;26;20260;-78
2024/04/20 04:24:48;;;;;;;3.25;1.52;;;5.30;99.90;;;;;;5438394;26;20260;-78
2024/04/20 04:27:17;;;;;;;2.53;2.25;;;5.30;99.90;;;;;;5438231;26;20230;-78
2024/04/20 04:29:47;;;;;;;3.00;1.40;;;5.40;99.90;;;;;;5437939;26;20237;-78
2024/04/20 04:32:15;;;;;;;1.67;1.30;;;5.30;99.90;;;;;;5436771;26;20217;-77
2024/04/20 04:34:44;;;;;;;2.40;1.60;;;5.20;99.90;;;;;;5436709;26;20221;-78
2024/04/20 04:37:15;;;;;;;4.95;1.38;;;5.40;99.90;;;;;;5432491;26;20735;-79
2024/04/20 04:39:44;;;;;;;3.35;1.63;;;5.40;99.90;;;;;;5429230;26;20574;-78
2024/04/20 04:42:12;;;;;;;2.10;1.30;;;5.50;99.90;;;;;;5430745;26;20283;-78
2024/04/20 04:44:41;;;;;;;1.65;1.25;;;5.40;99.90;;;;;;5425535;26;20229;-79
2024/04/20 04:47:09;;;;;;;3.60;1.85;;;5.40;99.90;;;;;;5420888;26;20233;-79
2024/04/20 04:49:38;;;;;;;2.72;1.60;;;5.50;99.90;;;;;;5421320;26;20273;-79
2024/04/20 04:52:07;;;;;;;1.63;1.20;;;5.50;99.90;;;;;;5420404;26;20217;-79
2024/04/20 04:54:38;;;;;;;2.00;1.25;;;5.60;99.90;;;;;;5420500;26;20221;-79
2024/04/20 04:57:07;;;;;;;4.05;1.60;;;5.60;99.90;;;;;;5404491;26;20225;-79
2024/04/20 04:59:36;;;;;;;3.00;1.60;;;5.70;99.90;;;;;;5391228;26;20240;-79
2024/04/20 05:02:04;;;;;;;2.10;1.52;;;5.70;99.90;;;;;;5405385;26;20271;-79
2024/04/20 05:04:33;;;;;;;2.60;1.70;;;5.80;99.90;;;;;;5419819;26;20272;-80
2024/04/20 05:07:02;;;;;;;3.78;1.50;;;5.90;99.90;;;;;;5419197;26;20595;-79
2024/04/20 05:09:32;;;;;;;2.50;1.70;;;6.00;99.90;;;;;;5409253;26;20233;-79
2024/04/20 05:12:03;;;;;;;2.20;1.52;;;6.00;99.90;;;;;;5420249;26;20710;-79
2024/04/20 05:14:32;;;;;;;2.85;1.52;;;6.10;99.90;;;;;;5424761;26;20221;-80
2024/04/20 05:17:00;;;;;;;1.83;1.30;;;6.50;99.90;;;;;;5403207;26;20218;-79
2024/04/20 05:19:29;;;;;;;1.92;1.40;;;7.20;99.90;;;;;;5413662;26;20233;-80
2024/04/20 05:21:57;;;;;;;3.95;1.45;;;8.10;99.90;;;;;;5422658;26;20969;-79
2024/04/20 05:24:27;;;;;;;5.13;2.40;;;9.00;99.90;;;;;;5424286;26;20230;-79
2024/04/20 05:26:55;;;;;;;3.80;1.35;;;10.00;99.90;;;;;;5408829;26;20264;-79
2024/04/20 05:29:27;;;;;;;1.92;1.50;;;10.90;99.10;;;;;;5425463;26;20237;-78
2024/04/20 05:31:55;;;;;;;4.18;1.90;;;11.80;96.70;;;;;;5428073;26;20283;-78
2024/04/20 05:34:24;;;;;;;2.55;1.67;;;12.70;95.30;;;;;;5426934;26;20225;-78
2024/04/20 05:36:52;;;;;;;2.53;1.73;;;13.70;93.30;;;;;;5415742;26;20341;-78
2024/04/20 05:39:21;;;;;;;2.10;1.42;;;14.50;91.60;;;;;;5427921;26;20240;-79
2024/04/20 05:41:50;;;;;;;2.83;2.20;;;15.50;90.30;;;;;;5427185;26;20278;-78
2024/04/20 05:44:19;;;;;;;1.70;1.50;;;16.60;87.30;;;;;;5424967;26;20477;-78
2024/04/20 05:46:50;;;;;;;2.80;1.87;;;17.40;82.90;;;;;;5418861;26;20479;-80
2024/04/20 05:49:19;;;;;;;3.93;2.10;;;18.10;79.50;;;;;;5419014;26;20482;-79
2024/04/20 05:51:47;;;;;;;4.33;1.90;;;18.60;77.30;;;;;;5419261;26;20471;-79
2024/04/20 05:54:17;;;;;;;2.80;1.90;;;18.50;75.60;;;;;;5417494;26;20466;-78
2024/04/20 05:56:46;;;;;;;3.15;1.95;;;18.90;74.60;;;;;;5418773;26;20479;-80
2024/04/20 05:59:15;;;;;;;2.07;1.87;;;19.20;73.60;;;;;;5404409;26;20471;-82
2024/04/20 06:01:44;;;;;;;3.27;1.90;;;19.50;72.70;;;;;;5420461;26;20471;-80
2024/04/20 06:07:01;;;;;;;3.67;2.00;;;20.00;71.40;;;;;;5399572;26;20858;-79
2024/04/20 06:09:31;;;;;;;3.03;2.27;;;20.40;69.80;;;;;;5427722;26;20522;-82
2024/04/20 06:11:59;;;;;;;2.83;2.50;;;20.40;69.60;;;;;;5427860;26;20625;-82
2024/04/20 06:14:28;;;;;;;7.13;2.90;;;20.60;69.20;;;;;;5422712;26;20821;-81
2024/04/20 06:16:54;;;;;;;4.77;2.50;;;21.10;68.30;;;;;;5411654;26;20472;-83
2024/04/20 06:19:28;;;;;;;3.03;2.60;;;21.10;66.90;;;;;;5420407;26;20528;-81
2024/04/20 06:21:56;;;;;;;3.80;2.60;;;20.60;66.80;;;;;;5421134;26;21077;-81
2024/04/20 06:24:25;;;;;;;4.00;2.83;;;19.90;66.40;;;;;;5420633;26;20480;-82
2024/04/20 06:27:06;;;;;;;3.50;3.07;;;19.80;67.30;;;;;;5419513;26;20471;-82
2024/04/20 06:29:35;;;;;;;5.90;3.70;;;19.20;67.70;;;;;;5420267;26;20968;-80
2024/04/20 06:32:03;;;;;;;3.30;2.37;;;19.20;68.20;;;;;;5419857;26;20993;-81
2024/04/20 06:34:35;;;;;;;4.00;2.67;;;19.20;68.50;;;;;;5420491;26;20528;-79
2024/04/20 06:37:03;;;;;;;2.43;2.23;;;19.10;68.70;;;;;;5419761;26;20608;-81
2024/04/20 06:39:32;;;;;;;3.50;2.87;;;19.10;68.60;;;;;;5420331;26;20471;-80
2024/04/20 06:42:01;;;;;;;2.63;2.20;;;19.30;69.00;;;;;;5420203;26;20471;-80
2024/04/20 06:44:29;;;;;;;2.60;1.90;;;19.30;68.60;;;;;;5421567;26;20867;-79
2024/04/20 06:46:58;;;;;;;4.00;2.27;;;18.60;69.00;;;;;;5419236;26;20466;-79
2024/04/20 06:49:27;;;;;;;2.90;2.43;;;17.80;71.10;;;;;;5420636;26;20537;-78
2024/04/20 06:51:58;;;;;;;2.30;2.10;;;17.60;71.70;;;;;;5419166;26;20514;-80
2024/04/20 06:54:26;;;;;;;2.27;2.07;;;17.50;71.40;;;;;;5421606;26;20478;-81
2024/04/20 06:56:55;;;;;;;2.90;2.17;;;17.40;72.20;;;;;;5419911;26;20523;-80
2024/04/20 06:59:25;;;;;;;2.60;2.40;;;17.80;72.70;;;;;;5422618;26;20522;-80
2024/04/20 07:01:54;;;;;;;6.20;2.73;;;18.20;72.20;;;;;;5413324;26;20479;-79
2024/04/20 07:04:22;;;;;;;3.87;2.57;;;18.40;71.10;;;;;;5418356;26;20471;-79
2024/04/20 07:06:51;;;;;;;4.07;2.50;;;18.60;70.10;;;;;;5414668;26;21068;-80
2024/04/20 07:09:23;;;;;;;3.00;2.70;;;18.20;70.80;;;;;;5418749;26;20474;-79
2024/04/20 07:11:52;;;;;;;2.70;2.50;;;18.10;70.70;;;;;;5401250;26;20534;-80
2024/04/20 07:14:20;;;;;;;6.50;3.20;;;17.50;70.50;;;;;;5429452;26;20513;-78
2024/04/20 07:16:49;;;;;;;4.40;3.27;;;17.20;71.50;;;;;;5431998;26;20599;-80
2024/04/20 07:19:18;;;;;;;3.60;2.50;;;17.70;71.20;;;;;;5434502;26;20536;-79
2024/04/20 07:21:46;;;;;;;2.57;2.33;;;17.60;69.70;;;;;;5433675;26;20467;-80
2024/04/20 07:24:15;;;;;;;2.57;2.37;;;17.30;71.00;;;;;;5433357;26;20571;-79
2024/04/20 07:26:47;;;;;;;6.80;3.33;;;16.80;70.20;;;;;;5432109;26;20471;-78
2024/04/20 07:29:15;;;;;;;2.83;2.53;;;16.10;72.30;;;;;;5409809;26;20479;-77
2024/04/20 07:31:45;;;;;;;5.93;3.05;;;15.50;73.10;;;;;;5423940;26;20225;-80
2024/04/20 07:34:14;;;;;;;3.35;2.40;;;15.10;74.90;;;;;;5422950;26;20233;-80
2024/04/20 07:36:48;;;;;;;4.95;4.05;;;14.50;76.80;;;;;;5421512;26;20233;-79
2024/04/20 07:39:17;;;;;;;3.35;2.90;;;14.00;78.20;;;;;;5411722;26;20286;-79
2024/04/20 07:41:48;;;;;;;3.67;2.72;;;13.50;79.60;;;;;;5423768;26;20237;-79
2024/04/20 07:44:17;;;;;;;3.25;2.95;;;13.20;81.10;;;;;;5424991;26;20267;-78
2024/04/20 07:46:46;;;;;;;3.13;2.85;;;13.00;81.30;;;;;;5425930;26;20280;-80
2024/04/20 07:49:15;;;;;;;3.28;2.97;;;12.70;80.90;;;;;;5403535;26;20277;-79
2024/04/20 07:51:43;;;;;;;3.22;2.80;;;12.60;81.40;;;;;;5390550;26;20234;-79
2024/04/20 07:54:12;;;;;;;5.50;4.55;;;12.60;81.20;;;;;;5395313;26;20233;-78
2024/04/20 07:56:40;;;;;;;3.10;2.80;;;12.40;81.30;;;;;;5423959;26;20276;-79
2024/04/20 07:59:12;;;;;;;3.50;3.15;;;12.30;82.10;;;;;;5408522;26;20229;-79
2024/04/20 08:01:40;;;;;;;2.13;1.92;;;12.20;82.80;;;;;;5424900;26;20243;-77
2024/04/20 08:04:10;;;;;;;2.28;2.17;;;12.00;83.00;;;;;;5419504;26;20233;-77
2024/04/20 08:06:39;;;;;;;2.85;2.60;;;11.90;83.90;;;;;;5432920;26;20272;-78
2024/04/20 08:09:07;;;;;;;6.45;2.40;;;12.00;84.80;;;;;;5431221;26;20237;-78
2024/04/20 08:11:36;;;;;;;3.17;2.90;;;11.80;84.80;;;;;;5431077;26;20229;-77
2024/04/20 08:14:04;;;;;;;2.45;2.25;;;11.90;86.00;;;;;;5431635;26;20285;-78
2024/04/20 08:16:36;;;;;;;4.85;2.40;;;11.90;86.30;;;;;;5420361;26;20230;-79
2024/04/20 08:19:05;;;;;;;2.53;2.33;;;11.80;87.50;;;;;;5423242;26;20314;-80
2024/04/20 08:21:33;;;;;;;2.90;2.60;;;11.70;88.20;;;;;;5416127;26;20235;-78
2024/04/20 08:24:02;;;;;;;2.42;2.00;;;11.70;88.90;;;;;;5423021;26;20233;-79
2024/04/20 08:26:31;;;;;;;3.45;2.70;;;12.00;88.90;;;;;;5425101;26;20233;-79
2024/04/20 08:29:00;;;;;;;3.13;2.80;;;12.10;88.60;;;;;;5419614;26;20234;-80
2024/04/20 08:31:28;;;;;;;3.28;2.67;;;12.30;88.40;;;;;;5413314;26;20237;-79
2024/04/20 08:34:00;;;;;;;2.78;2.58;;;12.50;88.30;;;;;;5425452;26;20232;-79
2024/04/20 08:36:28;;;;;;;3.70;2.58;;;12.70;87.60;;;;;;5425108;26;20234;-80
2024/04/20 08:38:57;;;;;;;2.58;1.95;;;12.80;87.10;;;;;;5428759;26;20241;-79
2024/04/20 08:41:28;;;;;;;3.70;2.65;;;14.00;87.20;;;;;;5426789;26;20226;-80
2024/04/20 08:44:02;;;;;;;13.55;8.27;;;14.80;83.70;;;;;;5430515;26;20233;-79
2024/04/20 08:46:32;;;;;;;9.80;4.00;;;14.70;82.10;;;;;;5430568;26;20316;-77
2024/04/20 08:49:05;;;;;;;3.20;2.90;;;14.60;82.50;;;;;;5437789;26;20237;-79
2024/04/20 08:51:35;;;;;;;2.92;2.70;;;14.50;82.80;;;;;;5435747;26;20280;-80
2024/04/20 08:54:08;;;;;;;3.03;2.67;;;14.60;82.20;;;;;;5417551;26;20235;-78
2024/04/20 08:56:38;;;;;;;5.65;3.35;;;14.70;81.50;;;;;;5437090;26;20234;-80
2024/04/20 08:59:06;;;;;;;2.75;2.55;;;14.60;82.70;;;;;;5437095;26;20225;-78
2024/04/20 09:01:37;;;;;;;5.00;2.88;;;14.50;82.90;;;;;;5438236;26;20272;-79
2024/04/20 09:04:09;;;;;;;2.83;2.25;;;14.20;83.40;;;;;;5434368;26;20229;-79
2024/04/20 09:06:42;;;;;;;2.22;2.00;;;14.20;83.60;;;;;;5423757;26;20233;-78
2024/04/20 09:09:13;;;;;;;2.60;2.35;;;14.10;84.00;;;;;;5423330;26;20241;-79
2024/04/20 09:11:42;;;;;;;2.60;2.30;;;13.90;85.00;;;;;;5421015;26;20234;-80
2024/04/20 09:14:11;;;;;;;3.35;2.95;;;14.20;83.90;;;;;;5422926;26;20237;-79
2024/04/20 09:16:39;;;;;;;4.78;4.28;;;14.30;84.00;;;;;;5422188;26;20233;-79
2024/04/20 09:19:11;;;;;;;2.67;2.20;;;14.40;83.40;;;;;;5406762;26;20279;-79
2024/04/20 09:21:40;;;;;;;2.88;2.58;;;14.40;83.20;;;;;;5421545;26;20237;-79
2024/04/20 09:24:09;;;;;;;6.30;3.50;;;14.60;82.60;;;;;;5415220;26;20245;-80
2024/04/20 09:26:38;;;;;;;2.65;2.22;;;14.60;82.10;;;;;;5412452;26;20304;-78
2024/04/20 09:29:08;;;;;;;6.20;3.17;;;14.50;81.70;;;;;;5424434;26;20380;-77
2024/04/20 09:31:37;;;;;;;3.67;2.50;;;14.70;81.30;;;;;;5423445;26;20280;-79
2024/04/20 09:34:06;;;;;;;2.90;2.45;;;14.80;80.30;;;;;;5423506;26;20241;-78
2024/04/20 09:36:37;;;;;;;2.38;2.17;;;14.90;80.00;;;;;;5421209;26;20291;-80
2024/04/20 09:39:07;;;;;;;7.03;2.80;;;14.80;79.10;;;;;;5416924;26;21141;-79
2024/04/20 09:41:36;;;;;;;3.00;2.80;;;14.80;80.30;;;;;;5412648;26;20726;-78
2024/04/20 09:44:05;;;;;;;3.80;2.30;;;14.80;81.20;;;;;;5420991;26;20284;-79
2024/04/20 09:46:35;;;;;;;5.88;2.55;;;15.30;79.70;;;;;;5424479;26;20233;-80
2024/04/20 09:49:08;;;;;;;2.80;2.38;;;15.50;79.20;;;;;;5424046;26;20263;-79
2024/04/20 09:51:52;;;;;;;3.17;2.23;;;15.80;80.00;;;;;;5426171;26;20336;-79
2024/04/20 09:54:28;;;;;;;3.20;2.57;;;16.20;77.50;;;;;;5415011;26;20469;-79
2024/04/20 09:56:59;;;;;;;2.80;2.60;;;16.10;76.70;;;;;;5428066;26;20511;-79
2024/04/20 09:59:30;;;;;;;5.15;2.40;;;15.80;77.50;;;;;;5430545;26;20363;-80
2024/04/20 10:02:01;;;;;;;5.78;3.65;;;15.70;77.40;;;;;;5431267;26;20273;-81
2024/04/20 10:04:32;;;;;;;3.93;2.80;;;16.10;78.20;;;;;;5433949;26;20282;-80
2024/04/20 10:07:03;;;;;;;4.63;2.90;;;16.70;77.30;;;;;;5434875;26;20512;-78
2024/04/20 10:09:31;;;;;;;3.00;2.80;;;16.60;74.70;;;;;;5428488;26;20532;-79
2024/04/20 10:11:59;;;;;;;2.30;2.10;;;16.20;74.70;;;;;;5437156;26;20475;-80
2024/04/20 10:14:28;;;;;;;2.95;2.10;;;15.80;75.60;;;;;;5423717;26;20237;-78
2024/04/20 10:16:59;;;;;;;2.87;2.57;;;15.80;76.60;;;;;;5437203;26;20288;-79
2024/04/20 10:19:38;;;;;;;6.15;4.28;;;15.80;76.70;;;;;;5436502;26;20513;-78
2024/04/20 10:22:09;;;;;;;6.60;2.90;;;15.70;77.70;;;;;;5436541;26;20233;-80
2024/04/20 10:24:38;;;;;;;3.15;2.85;;;15.30;76.60;;;;;;5431377;26;20237;-80
2024/04/20 10:27:07;;;;;;;3.30;2.30;;;14.90;77.70;;;;;;5431293;26;20233;-79
2024/04/20 10:29:36;;;;;;;7.15;3.28;;;14.80;78.90;;;;;;5432190;26;20290;-78
2024/04/20 10:32:06;;;;;;;4.78;3.42;;;14.50;79.60;;;;;;5430817;26;20280;-79
2024/04/20 10:34:35;;;;;;;2.90;2.55;;;14.20;80.10;;;;;;5433097;26;20314;-79
2024/04/20 10:37:08;;;;;;;3.67;2.58;;;14.10;79.50;;;;;;5436148;26;20276;-79
2024/04/20 10:39:39;;;;;;;2.95;2.30;;;14.00;78.60;;;;;;5416706;26;20234;-81
2024/04/20 10:42:10;;;;;;;2.58;2.38;;;14.40;79.50;;;;;;5428579;26;20241;-79
2024/04/20 10:44:40;;;;;;;2.45;2.25;;;14.90;78.20;;;;;;5427733;26;20229;-80
2024/04/20 10:47:09;;;;;;;2.20;1.65;;;15.10;76.20;;;;;;5450684;26;20229;-79
2024/04/20 10:49:44;;;;;;;2.55;2.25;;;15.20;75.50;;;;;;5437027;26;20273;-80
2024/04/20 10:52:20;;;;;;;4.10;2.03;;;15.20;75.40;;;;;;5433347;26;20233;-79
2024/04/20 10:54:51;;;;;;;2.42;2.17;;;15.20;75.60;;;;;;5434779;26;20233;-80
2024/04/20 10:57:20;;;;;;;1.98;1.88;;;15.40;75.80;;;;;;5435285;26;20338;-81
2024/04/20 10:59:49;;;;;;;2.30;2.10;;;15.70;75.90;;;;;;5433504;26;20245;-82
2024/04/20 11:02:17;;;;;;;3.65;2.20;;;15.50;75.40;;;;;;5420712;26;20232;-79
2024/04/20 11:04:46;;;;;;;3.00;2.67;;;15.10;75.00;;;;;;5435542;26;20271;-80
2024/04/20 11:07:19;;;;;;;3.65;2.05;;;14.90;75.10;;;;;;5420469;26;20269;-78
2024/04/20 11:09:52;;;;;;;2.50;2.30;;;14.70;75.30;;;;;;5414305;26;20308;-80
2024/04/20 11:12:21;;;;;;;3.15;2.85;;;14.40;77.10;;;;;;5417421;26;20276;-79
2024/04/20 11:14:51;;;;;;;3.60;3.30;;;14.10;78.30;;;;;;5430207;26;20241;-78
2024/04/20 11:17:21;;;;;;;2.90;2.70;;;13.80;76.90;;;;;;5428613;26;20615;-79
2024/04/20 11:19:50;;;;;;;2.80;2.60;;;13.80;78.00;;;;;;5429900;26;20257;-79
2024/04/20 11:22:19;;;;;;;3.00;2.50;;;13.80;78.30;;;;;;5417317;26;20233;-79
2024/04/20 11:24:51;;;;;;;5.55;3.47;;;13.80;78.40;;;;;;5431010;26;20641;-80
2024/04/20 11:27:19;;;;;;;4.53;2.72;;;13.70;78.80;;;;;;5417905;26;20237;-81
2024/04/20 11:29:49;;;;;;;5.30;3.60;;;13.50;80.30;;;;;;5430431;26;20265;-80
2024/04/20 11:32:23;;;;;;;2.05;1.95;;;13.50;80.30;;;;;;5409206;26;20233;-82
2024/04/20 11:34:53;;;;;;;2.80;2.60;;;13.70;80.50;;;;;;5430129;26;20229;-80
2024/04/20 11:37:23;;;;;;;3.70;2.22;;;13.90;79.00;;;;;;5425488;26;20688;-80
2024/04/20 11:40:04;;;;;;;2.42;2.22;;;14.10;78.00;;;;;;5421804;26;20233;-79
2024/04/20 11:42:33;;;;;;;2.65;2.45;;;14.60;78.70;;;;;;5424336;26;20766;-80
2024/04/20 11:45:05;;;;;;;2.42;2.20;;;15.00;78.00;;;;;;5429819;26;20233;-78
2024/04/20 11:47:34;;;;;;;2.40;2.20;;;15.30;77.50;;;;;;5429422;26;20233;-78
2024/04/20 11:50:03;;;;;;;2.20;2.00;;;15.50;77.00;;;;;;5429074;26;20277;-79
2024/04/20 11:55:19;;;;;;;2.20;2.00;;;15.70;76.80;;;;;;5402310;26;20836;-80
2024/04/20 11:57:50;;;;;;;2.60;2.40;;;15.30;77.60;;;;;;5427121;26;20276;-78
2024/04/20 12:00:19;;;;;;;3.63;3.20;;;15.20;78.50;;;;;;5411629;26;20237;-81
2024/04/20 12:02:48;;;;;;;2.75;2.55;;;14.90;80.00;;;;;;5425853;26;20264;-79
2024/04/20 12:05:17;;;;;;;2.67;2.47;;;14.90;81.30;;;;;;5395277;26;20229;-81
2024/04/20 12:07:46;;;;;;;4.55;2.72;;;14.90;81.30;;;;;;5411793;26;20238;-82
2024/04/20 12:10:14;;;;;;;2.67;2.47;;;15.00;82.50;;;;;;5426094;26;20283;-82
2024/04/20 12:12:45;;;;;;;3.72;2.85;;;14.80;82.80;;;;;;5424463;26;20325;-80
2024/04/20 12:15:14;;;;;;;3.13;2.70;;;14.50;82.70;;;;;;5424400;26;20233;-79
2024/04/20 12:17:43;;;;;;;2.58;2.38;;;14.40;83.70;;;;;;5424442;26;20249;-80
2024/04/20 12:20:12;;;;;;;2.25;2.05;;;14.10;83.20;;;;;;5424811;26;20679;-79
2024/04/20 12:22:43;;;;;;;2.63;2.28;;;14.20;83.60;;;;;;5427370;26;20268;-80
2024/04/20 12:25:12;;;;;;;4.03;2.65;;;14.40;83.40;;;;;;5426267;26;20272;-82
2024/04/20 12:27:42;;;;;;;1.98;1.88;;;14.50;83.00;;;;;;5426572;26;20790;-80
2024/04/20 12:30:13;;;;;;;2.42;2.22;;;14.50;82.00;;;;;;5426336;26;20225;-81
2024/04/20 12:32:42;;;;;;;3.40;2.40;;;14.60;81.70;;;;;;5418814;26;20237;-80
2024/04/20 12:35:11;;;;;;;2.38;2.17;;;14.80;81.10;;;;;;5424962;26;20246;-81
2024/04/20 12:37:39;;;;;;;4.80;2.30;;;14.70;81.20;;;;;;5424680;26;20230;-79
2024/04/20 12:40:10;;;;;;;4.60;4.25;;;14.70;81.70;;;;;;5425193;26;20237;-80
2024/04/20 12:42:38;;;;;;;2.50;2.30;;;14.80;81.20;;;;;;5430175;26;20229;-80
2024/04/20 12:45:08;;;;;;;2.85;1.80;;;14.90;80.40;;;;;;5429857;26;20233;-80
2024/04/20 12:47:39;;;;;;;2.85;2.50;;;14.70;79.90;;;;;;5424073;26;20271;-81
2024/04/20 12:50:08;;;;;;;2.97;2.78;;;14.40;79.70;;;;;;5411887;26;20680;-82
2024/04/20 12:52:37;;;;;;;4.43;2.28;;;14.40;81.10;;;;;;5428066;26;20272;-82
2024/04/20 12:55:06;;;;;;;2.55;2.35;;;14.40;81.40;;;;;;5426309;26;20233;-82
2024/04/20 12:57:34;;;;;;;2.78;2.35;;;14.30;80.80;;;;;;5426339;26;20241;-83
2024/04/20 13:00:03;;;;;;;2.15;1.95;;;14.10;80.20;;;;;;5432111;26;20233;-80
2024/04/20 13:02:32;;;;;;;3.15;2.85;;;14.10;80.80;;;;;;5439847;26;20262;-82
2024/04/20 13:05:03;;;;;;;2.30;2.10;;;13.90;80.10;;;;;;5440123;26;20233;-80
2024/04/20 13:07:31;;;;;;;2.40;2.00;;;14.00;80.50;;;;;;5438335;26;20233;-80